Time;durP1;ratioP1;P1;durP2;ratioP2;P2;SDS_P1;SDS_P2;PMS_P1;PMS_P2;Temp;Humidity;BMP_temperature;BMP_pressure;BME280_temperature;BME280_humidity;BME280_pressure;Samples;Min_cycle;Max_cycle;Signal;HPM_P1;HPM_P2
2021/04/15 00:00:40;;;;;;;5.30;1.02;;;4.30;99.90;;;;;;5023522;28;20478;-83
2021/04/15 00:03:14;;;;;;;2.88;1.63;;;4.30;99.90;;;;;;5008124;28;20072;-84
2021/04/15 00:05:41;;;;;;;4.03;1.33;;;4.30;99.90;;;;;;5007008;28;20406;-83
2021/04/15 00:08:08;;;;;;;3.40;1.17;;;4.30;99.90;;;;;;5006323;28;20058;-82
2021/04/15 00:10:38;;;;;;;4.57;1.27;;;4.30;99.90;;;;;;5004779;28;20212;-83
2021/04/15 00:13:08;;;;;;;14.60;1.67;;;4.30;99.90;;;;;;5021444;28;20499;-84
2021/04/15 00:15:35;;;;;;;6.60;1.52;;;4.30;99.90;;;;;;5019499;28;20484;-82
2021/04/15 00:18:01;;;;;;;9.77;1.67;;;4.30;99.90;;;;;;5020063;28;20049;-82
2021/04/15 00:20:27;;;;;;;11.07;1.80;;;4.30;99.90;;;;;;5006538;28;20076;-83
2021/04/15 00:22:53;;;;;;;4.03;1.27;;;4.30;99.90;;;;;;5004907;28;20050;-83
2021/04/15 00:25:20;;;;;;;5.53;1.60;;;4.20;99.90;;;;;;5003699;28;20065;-83
2021/04/15 00:27:46;;;;;;;5.72;1.75;;;4.20;99.90;;;;;;5007128;28;20065;-84
2021/04/15 00:30:13;;;;;;;7.03;1.73;;;4.10;99.90;;;;;;5009737;28;20054;-84
2021/04/15 00:32:39;;;;;;;4.82;1.75;;;4.00;99.90;;;;;;5009477;28;20060;-84
2021/04/15 00:35:07;;;;;;;3.45;1.60;;;4.00;99.90;;;;;;5019484;28;20050;-84
2021/04/15 00:37:33;;;;;;;3.78;1.35;;;3.90;99.90;;;;;;5021779;28;20140;-84
2021/04/15 00:39:59;;;;;;;6.13;1.70;;;3.80;99.90;;;;;;5025381;28;20642;-84
2021/04/15 00:42:26;;;;;;;6.82;1.67;;;3.80;99.90;;;;;;5006470;28;20052;-83
2021/04/15 00:44:54;;;;;;;8.88;2.58;;;3.70;99.90;;;;;;5013877;28;20508;-84
2021/04/15 00:47:27;;;;;;;6.80;1.50;;;3.60;99.90;;;;;;5020420;28;20045;-83
2021/04/15 00:49:59;;;;;;;6.73;1.83;;;3.60;99.90;;;;;;5004566;28;20101;-84
2021/04/15 00:52:32;;;;;;;8.95;1.30;;;3.60;99.90;;;;;;5008632;28;20768;-83
2021/04/15 00:55:02;;;;;;;6.70;1.70;;;3.60;99.90;;;;;;5006811;28;20050;-82
2021/04/15 00:57:32;;;;;;;4.00;1.75;;;3.60;99.90;;;;;;5024826;28;20042;-83
2021/04/15 00:59:59;;;;;;;5.20;1.70;;;3.70;99.90;;;;;;5009124;28;20128;-84
2021/04/15 01:02:27;;;;;;;5.60;2.03;;;3.70;99.90;;;;;;5022238;28;20137;-83
2021/04/15 01:05:04;;;;;;;6.38;1.52;;;3.70;99.90;;;;;;5012571;28;20073;-83
2021/04/15 01:07:31;;;;;;;2.72;1.60;;;3.80;99.90;;;;;;5006067;28;20050;-83
2021/04/15 01:10:00;;;;;;;4.30;1.90;;;3.80;99.90;;;;;;5007158;28;20136;-83
2021/04/15 01:12:43;;;;;;;3.08;1.40;;;3.80;99.90;;;;;;5020030;28;20042;-83
2021/04/15 01:15:40;;;;;;;7.53;2.22;;;3.80;99.90;;;;;;5001916;28;20045;-83
2021/04/15 01:18:15;;;;;;;3.58;1.70;;;3.80;99.90;;;;;;5002126;28;20076;-83
2021/04/15 01:20:59;;;;;;;6.35;1.60;;;3.80;99.90;;;;;;5003259;28;20063;-84
2021/04/15 01:23:38;;;;;;;6.82;1.50;;;3.80;99.90;;;;;;5020195;28;20073;-83
2021/04/15 01:26:43;;;;;;;4.32;1.70;;;3.80;99.90;;;;;;5018625;28;20076;-83
2021/04/15 01:29:15;;;;;;;2.65;1.40;;;3.80;99.90;;;;;;4975704;28;20073;-84
2021/04/15 01:31:59;;;;;;;4.10;1.75;;;3.80;99.90;;;;;;5016631;28;20088;-84
2021/04/15 01:34:48;;;;;;;4.00;1.65;;;3.90;99.90;;;;;;5005301;28;20085;-84
2021/04/15 01:37:23;;;;;;;2.38;1.42;;;3.90;99.90;;;;;;5004799;28;20056;-84
2021/04/15 01:40:08;;;;;;;4.57;1.50;;;3.80;99.90;;;;;;5020226;28;20557;-84
2021/04/15 01:42:51;;;;;;;3.83;1.80;;;3.90;99.90;;;;;;5017695;28;20054;-84
2021/04/15 01:45:18;;;;;;;4.68;1.50;;;3.80;99.90;;;;;;5020239;28;20072;-83
2021/04/15 01:48:00;;;;;;;4.45;1.77;;;3.80;99.90;;;;;;5006806;28;20077;-83
2021/04/15 01:50:34;;;;;;;3.60;1.60;;;3.80;99.90;;;;;;5019447;28;20045;-83
2021/04/15 01:53:12;;;;;;;5.30;1.70;;;3.80;99.90;;;;;;5005831;28;20054;-83
2021/04/15 01:56:18;;;;;;;6.35;1.70;;;3.70;99.90;;;;;;5020091;28;20061;-83
2021/04/15 01:59:02;;;;;;;8.43;2.08;;;3.70;99.90;;;;;;4984448;28;20044;-83
2021/04/15 02:01:33;;;;;;;8.07;1.70;;;3.60;99.90;;;;;;5005202;28;20491;-82
2021/04/15 02:04:04;;;;;;;4.38;1.80;;;3.50;99.90;;;;;;4999881;28;20049;-83
2021/04/15 02:06:35;;;;;;;2.92;1.85;;;3.40;99.90;;;;;;5022807;28;20104;-84
2021/04/15 02:09:10;;;;;;;4.70;1.70;;;3.30;99.90;;;;;;5007711;28;20557;-83
2021/04/15 02:11:46;;;;;;;6.80;2.17;;;3.30;99.90;;;;;;5008987;28;20064;-83
2021/04/15 02:14:25;;;;;;;7.57;1.70;;;3.20;99.90;;;;;;5004586;28;20069;-82
2021/04/15 02:16:54;;;;;;;10.55;2.45;;;3.00;99.90;;;;;;5024994;28;20060;-83
2021/04/15 02:19:33;;;;;;;2.60;1.50;;;3.00;99.90;;;;;;5007452;28;20535;-83
2021/04/15 02:22:31;;;;;;;3.65;1.98;;;2.90;99.90;;;;;;5009715;28;20127;-83
2021/04/15 02:25:23;;;;;;;9.50;1.83;;;2.80;99.90;;;;;;5023694;28;20454;-83
2021/04/15 02:28:10;;;;;;;4.72;2.10;;;2.70;99.90;;;;;;5000078;28;20632;-83
2021/04/15 02:31:09;;;;;;;4.07;1.77;;;2.60;99.90;;;;;;5008803;28;20049;-84
2021/04/15 02:33:43;;;;;;;6.10;1.80;;;2.60;99.90;;;;;;4995113;28;20049;-84
2021/04/15 02:36:11;;;;;;;3.78;1.95;;;2.50;99.90;;;;;;5009870;28;20096;-84
2021/04/15 02:38:47;;;;;;;6.32;1.88;;;2.40;99.90;;;;;;5026310;28;20069;-84
2021/04/15 02:41:19;;;;;;;6.80;2.05;;;2.40;99.90;;;;;;5009927;28;20099;-84
2021/04/15 02:43:52;;;;;;;5.63;2.55;;;2.40;99.90;;;;;;5010504;28;20489;-84
2021/04/15 02:46:29;;;;;;;5.70;1.90;;;2.30;99.90;;;;;;5023600;28;20058;-83
2021/04/15 02:49:00;;;;;;;6.10;2.13;;;2.30;99.90;;;;;;5020578;28;20121;-83
2021/04/15 02:51:31;;;;;;;10.55;2.08;;;2.30;99.90;;;;;;5024354;28;20551;-82
2021/04/15 02:54:07;;;;;;;4.35;2.17;;;2.30;99.90;;;;;;5019360;28;20053;-83
2021/04/15 02:56:42;;;;;;;5.72;1.98;;;2.30;99.90;;;;;;5004806;28;20064;-83
2021/04/15 02:59:18;;;;;;;9.73;2.08;;;2.30;99.90;;;;;;5021297;28;20046;-83
2021/04/15 03:01:50;;;;;;;5.70;2.28;;;2.30;99.90;;;;;;5007753;28;20049;-82
2021/04/15 03:04:20;;;;;;;9.43;2.28;;;2.30;99.90;;;;;;5006694;28;20129;-82
2021/04/15 03:06:50;;;;;;;9.45;2.70;;;2.20;99.90;;;;;;5004773;28;20105;-83
2021/04/15 03:09:18;;;;;;;10.52;2.10;;;2.20;99.90;;;;;;5021909;28;20565;-83
2021/04/15 03:11:59;;;;;;;6.57;2.60;;;2.20;99.90;;;;;;5002871;28;20061;-84
2021/04/15 03:14:31;;;;;;;4.75;2.00;;;2.20;99.90;;;;;;5007425;28;20046;-83
2021/04/15 03:17:05;;;;;;;4.68;1.80;;;2.10;99.90;;;;;;5023901;28;20145;-83
2021/04/15 03:19:40;;;;;;;3.95;1.75;;;2.10;99.90;;;;;;5003471;28;20054;-82
2021/04/15 03:22:16;;;;;;;5.10;2.03;;;2.10;99.90;;;;;;5024457;28;20073;-83
2021/04/15 03:24:49;;;;;;;5.05;2.05;;;2.00;99.90;;;;;;5005328;28;20088;-84
2021/04/15 03:27:25;;;;;;;5.10;2.97;;;2.00;99.90;;;;;;5005034;28;20050;-83
2021/04/15 03:30:09;;;;;;;9.30;2.40;;;1.90;99.90;;;;;;5021674;28;20446;-84
2021/04/15 03:32:43;;;;;;;;;;;1.90;99.90;;;;;;5021170;28;20053;-84
2021/04/15 03:35:25;;;;;;;4.80;1.85;;;1.80;99.90;;;;;;5005001;28;19926;-84
2021/04/15 03:38:16;;;;;;;5.70;1.90;;;1.80;99.90;;;;;;5016346;28;20061;-84
2021/04/15 03:40:49;;;;;;;11.85;3.10;;;1.70;99.90;;;;;;5027102;28;20114;-84
2021/04/15 03:43:22;;;;;;;8.70;2.40;;;1.70;99.90;;;;;;5009944;28;20488;-84
2021/04/15 03:45:50;;;;;;;7.47;2.00;;;1.70;99.90;;;;;;5004920;28;20066;-83
2021/04/15 03:48:21;;;;;;;8.25;2.40;;;1.70;99.90;;;;;;5005979;28;20049;-84
2021/04/15 03:50:50;;;;;;;7.60;2.20;;;1.70;99.90;;;;;;5020468;28;20099;-83
2021/04/15 03:53:34;;;;;;;8.45;1.95;;;1.70;99.90;;;;;;5007892;28;20089;-84
2021/04/15 03:56:04;;;;;;;11.50;2.63;;;1.70;99.90;;;;;;5009420;28;20050;-84
2021/04/15 03:58:41;;;;;;;9.90;2.50;;;1.70;99.90;;;;;;5016969;28;20081;-84
2021/04/15 04:01:13;;;;;;;17.45;2.38;;;1.70;99.90;;;;;;4995947;28;20077;-83
2021/04/15 04:03:46;;;;;;;5.75;2.40;;;1.80;99.90;;;;;;5008169;28;20055;-83
2021/04/15 04:06:17;;;;;;;8.48;2.28;;;1.80;99.90;;;;;;5009276;28;20046;-84
2021/04/15 04:08:55;;;;;;;6.07;2.65;;;1.80;99.90;;;;;;5024148;28;20050;-84
2021/04/15 04:11:22;;;;;;;8.07;2.55;;;1.90;99.90;;;;;;5004440;28;20108;-83
2021/04/15 04:13:54;;;;;;;8.13;2.60;;;1.90;99.90;;;;;;5022682;28;20127;-84
2021/04/15 04:16:26;;;;;;;6.07;2.63;;;2.00;99.90;;;;;;5008123;28;20069;-83
2021/04/15 04:19:10;;;;;;;11.95;2.97;;;2.10;99.90;;;;;;5006348;28;20050;-84
2021/04/15 04:21:58;;;;;;;14.17;3.20;;;2.20;99.90;;;;;;5007846;28;20182;-84
2021/04/15 04:24:53;;;;;;;7.75;2.63;;;2.30;99.90;;;;;;5020609;28;20350;-83
2021/04/15 04:27:22;;;;;;;;;;;2.40;99.90;;;;;;5006230;28;20065;-84
2021/04/15 04:30:14;;;;;;;7.40;2.88;;;2.50;99.90;;;;;;5022457;28;19925;-82
2021/04/15 04:32:43;;;;;;;7.95;2.80;;;2.50;99.90;;;;;;5022712;28;20049;-82
2021/04/15 04:35:16;;;;;;;5.30;2.50;;;2.60;99.90;;;;;;5019563;28;20069;-83
2021/04/15 04:37:45;;;;;;;7.60;3.00;;;2.70;99.90;;;;;;5021386;28;20042;-83
2021/04/15 04:40:22;;;;;;;4.15;2.75;;;2.70;99.90;;;;;;5002859;28;20073;-84
2021/04/15 04:43:03;;;;;;;11.00;3.55;;;2.70;99.90;;;;;;5007776;28;20061;-83
2021/04/15 04:45:33;;;;;;;8.45;3.00;;;2.60;99.90;;;;;;5006984;28;20104;-83
2021/04/15 04:48:15;;;;;;;7.88;3.28;;;2.50;99.90;;;;;;5020366;28;20227;-83
2021/04/15 04:50:53;;;;;;;14.27;3.70;;;2.50;99.90;;;;;;5006841;28;20136;-84
2021/04/15 04:53:29;;;;;;;7.90;3.30;;;2.40;99.90;;;;;;5020346;28;20049;-84
2021/04/15 04:56:07;;;;;;;6.75;2.95;;;2.40;99.90;;;;;;5023792;28;20050;-84
2021/04/15 04:58:35;;;;;;;7.57;3.10;;;2.30;99.90;;;;;;5005271;28;20081;-84
2021/04/15 05:01:03;;;;;;;6.05;3.20;;;2.20;99.90;;;;;;5011663;28;20117;-84
2021/04/15 05:03:31;;;;;;;11.60;3.53;;;2.20;99.90;;;;;;5023911;28;20464;-84
2021/04/15 05:06:04;;;;;;;20.60;4.45;;;2.20;99.90;;;;;;5005621;28;20049;-84
2021/04/15 05:08:48;;;;;;;7.63;3.00;;;2.20;99.90;;;;;;5020665;28;20054;-84
2021/04/15 05:11:15;;;;;;;9.57;3.13;;;2.20;99.90;;;;;;5001528;28;20088;-85
2021/04/15 05:13:42;;;;;;;10.43;3.40;;;2.10;99.90;;;;;;5005603;28;20053;-83
2021/04/15 05:16:08;;;;;;;8.52;3.83;;;2.10;99.90;;;;;;5008605;28;20067;-83
2021/04/15 05:18:36;;;;;;;8.95;2.47;;;2.20;99.90;;;;;;5003989;28;20100;-83
2021/04/15 05:21:20;;;;;;;6.43;2.92;;;2.20;99.90;;;;;;5004771;28;20073;-83
2021/04/15 05:24:17;;;;;;;12.55;4.15;;;2.20;99.90;;;;;;5003893;28;20070;-83
2021/04/15 05:26:47;;;;;;;8.90;3.53;;;2.30;99.90;;;;;;5002313;28;20073;-83
2021/04/15 05:29:20;;;;;;;8.20;3.38;;;2.30;99.90;;;;;;5019407;28;20145;-83
2021/04/15 05:31:49;;;;;;;5.82;3.28;;;2.40;99.90;;;;;;5006007;28;20053;-83
2021/04/15 05:34:43;;;;;;;7.18;3.08;;;2.30;99.90;;;;;;5020872;28;20525;-83
2021/04/15 05:37:15;;;;;;;8.82;3.38;;;2.40;99.90;;;;;;5017607;28;20126;-83
2021/04/15 05:39:42;;;;;;;8.60;3.20;;;2.40;99.90;;;;;;5000042;28;20187;-84
2021/04/15 05:42:25;;;;;;;8.38;3.92;;;2.50;99.90;;;;;;5005792;28;20046;-83
2021/04/15 05:44:56;;;;;;;7.50;3.95;;;2.60;99.90;;;;;;5004988;28;20154;-83
2021/04/15 05:47:30;;;;;;;11.68;3.85;;;2.70;99.90;;;;;;4996769;28;20708;-83
2021/04/15 05:50:04;;;;;;;9.82;4.18;;;2.80;99.90;;;;;;5012629;28;20138;-84
2021/04/15 05:52:36;;;;;;;9.50;3.63;;;2.90;99.90;;;;;;5000598;28;20432;-82
2021/04/15 05:55:43;;;;;;;9.73;4.10;;;3.00;99.90;;;;;;5016450;28;20054;-83
2021/04/15 05:58:17;;;;;;;8.13;3.85;;;3.10;99.90;;;;;;4998441;28;20076;-84
2021/04/15 06:00:56;;;;;;;8.93;5.00;;;3.20;99.90;;;;;;4997205;28;20068;-82
2021/04/15 06:03:33;;;;;;;10.25;4.60;;;3.30;99.90;;;;;;5012841;28;20541;-83
2021/04/15 06:06:16;;;;;;;7.35;4.70;;;3.40;99.90;;;;;;5013567;28;20073;-83
2021/04/15 06:08:49;;;;;;;13.25;4.60;;;3.50;99.90;;;;;;5008754;28;20046;-85
2021/04/15 06:11:33;;;;;;;8.98;3.38;;;3.60;99.90;;;;;;5006251;28;20117;-83
2021/04/15 06:14:08;;;;;;;;;;;3.70;99.90;;;;;;5021301;28;20044;-83
2021/04/15 06:16:45;;;;;;;9.02;4.60;;;3.80;99.90;;;;;;5000681;28;19983;-83
2021/04/15 06:19:17;;;;;;;13.43;4.97;;;4.00;99.90;;;;;;4999239;28;20046;-83
2021/04/15 06:21:52;;;;;;;9.82;4.50;;;4.20;99.90;;;;;;5004817;28;20070;-83
2021/04/15 06:24:27;;;;;;;11.48;4.90;;;4.40;99.90;;;;;;5008079;28;20048;-84
2021/04/15 06:26:57;;;;;;;9.45;4.55;;;4.50;99.90;;;;;;5019560;28;20049;-83
2021/04/15 06:29:58;;;;;;;7.90;4.15;;;4.50;99.90;;;;;;5002903;28;20074;-83
2021/04/15 06:32:32;;;;;;;10.00;4.35;;;4.70;99.90;;;;;;4967850;28;20053;-84
2021/04/15 06:34:58;;;;;;;8.00;4.45;;;4.70;99.90;;;;;;5014923;28;20123;-84
2021/04/15 06:37:43;;;;;;;10.25;4.25;;;5.10;99.90;;;;;;5014473;28;20136;-84
2021/04/15 06:40:47;;;;;;;6.70;3.17;;;5.50;99.90;;;;;;4999717;28;20046;-84
2021/04/15 06:43:44;;;;;;;9.00;3.80;;;5.70;99.90;;;;;;5014380;28;20062;-83
2021/04/15 06:46:26;;;;;;;9.02;3.42;;;6.00;99.90;;;;;;5001235;28;20538;-83
2021/04/15 06:49:24;;;;;;;5.82;3.50;;;6.30;99.90;;;;;;4998114;28;20061;-83
2021/04/15 06:52:40;;;;;;;6.55;2.72;;;6.40;99.90;;;;;;4999438;28;20050;-83
2021/04/15 06:55:18;;;;;;;8.20;3.55;;;6.50;99.90;;;;;;4993693;28;20161;-83
2021/04/15 06:58:03;;;;;;;7.78;2.92;;;6.40;99.90;;;;;;5003442;28;20132;-83
2021/04/15 07:00:57;;;;;;;6.60;2.55;;;6.40;99.90;;;;;;5019915;28;20049;-83
2021/04/15 07:03:50;;;;;;;11.52;2.42;;;6.50;99.90;;;;;;5009476;28;20128;-83
2021/04/15 07:06:19;;;;;;;3.80;2.42;;;6.60;99.90;;;;;;5011611;28;20053;-83
2021/04/15 07:09:16;;;;;;;4.10;2.38;;;6.70;99.90;;;;;;5023711;28;20573;-83
2021/04/15 07:12:08;;;;;;;6.97;3.08;;;6.70;99.90;;;;;;5008005;28;20045;-83
2021/04/15 07:14:54;;;;;;;10.10;3.25;;;6.70;99.90;;;;;;5023999;28;20049;-83
2021/04/15 07:17:42;;;;;;;8.40;2.67;;;6.70;99.90;;;;;;5022994;28;20515;-82
2021/04/15 07:20:22;;;;;;;6.93;2.80;;;6.70;99.90;;;;;;5007881;28;20058;-83
2021/04/15 07:22:59;;;;;;;9.30;2.85;;;6.60;99.90;;;;;;5005499;28;20065;-83
2021/04/15 07:25:40;;;;;;;5.85;3.00;;;6.60;99.90;;;;;;5007310;28;20093;-83
2021/04/15 07:28:28;;;;;;;10.70;3.70;;;6.60;99.90;;;;;;5005986;28;20081;-83
2021/04/15 07:31:29;;;;;;;8.45;3.17;;;6.60;99.90;;;;;;5001017;28;20054;-83
2021/04/15 07:33:59;;;;;;;9.80;2.53;;;6.60;99.90;;;;;;5023801;28;20080;-83
2021/04/15 07:36:47;;;;;;;7.85;2.67;;;6.60;99.90;;;;;;5021677;28;20502;-83
2021/04/15 07:39:27;;;;;;;10.38;3.45;;;6.70;99.90;;;;;;5002937;28;20105;-84
2021/04/15 07:42:10;;;;;;;6.90;2.85;;;6.90;99.90;;;;;;5024556;28;20057;-83
2021/04/15 07:45:03;;;;;;;11.75;2.80;;;7.20;99.90;;;;;;5009845;28;20125;-83
2021/04/15 07:47:47;;;;;;;8.13;3.67;;;7.30;99.90;;;;;;4999959;28;20137;-82
2021/04/15 07:50:49;;;;;;;11.00;3.75;;;7.50;99.90;;;;;;5004021;28;20108;-83
2021/04/15 07:53:15;;;;;;;8.27;3.17;;;7.60;99.90;;;;;;4987307;28;20070;-83
2021/04/15 07:56:18;;;;;;;10.13;2.88;;;7.50;99.90;;;;;;5023217;28;20057;-83
2021/04/15 07:59:08;;;;;;;17.58;4.18;;;7.60;99.90;;;;;;5005996;28;20634;-84
2021/04/15 08:02:02;;;;;;;6.35;3.17;;;7.60;99.90;;;;;;4989820;28;20122;-83
2021/04/15 08:04:49;;;;;;;7.80;3.10;;;7.70;99.90;;;;;;5006501;28;20444;-83
2021/04/15 08:07:42;;;;;;;5.63;3.28;;;7.80;99.90;;;;;;5007848;28;20072;-83
2021/04/15 08:10:30;;;;;;;9.18;3.47;;;7.90;99.90;;;;;;5006679;28;20085;-83
2021/04/15 08:13:17;;;;;;;16.58;3.83;;;8.00;99.90;;;;;;5021968;28;20092;-83
2021/04/15 08:15:55;;;;;;;15.02;3.13;;;7.90;99.90;;;;;;5011520;28;20498;-84
2021/04/15 08:18:42;;;;;;;5.20;3.35;;;7.80;99.90;;;;;;5018094;28;20042;-83
2021/04/15 08:21:30;;;;;;;10.13;3.85;;;7.80;99.90;;;;;;5006193;28;20075;-82
2021/04/15 08:24:01;;;;;;;10.02;3.92;;;8.00;99.90;;;;;;5005087;28;20070;-83
2021/04/15 08:27:02;;;;;;;10.50;5.18;;;8.10;99.90;;;;;;5006871;28;20046;-83
2021/04/15 08:29:50;;;;;;;13.65;4.32;;;8.30;99.90;;;;;;5006331;28;20136;-82
2021/04/15 08:32:42;;;;;;;15.48;4.95;;;8.40;99.90;;;;;;5021614;28;20048;-81
2021/04/15 08:35:37;;;;;;;11.27;5.32;;;8.30;99.90;;;;;;5003852;28;20060;-82
2021/04/15 08:38:36;;;;;;;15.88;5.28;;;8.40;99.90;;;;;;5008699;28;20042;-82
2021/04/15 08:41:29;;;;;;;15.90;4.60;;;8.50;99.90;;;;;;5023638;28;20056;-83
2021/04/15 08:44:21;;;;;;;12.65;4.40;;;8.50;99.90;;;;;;5006971;28;20069;-83
2021/04/15 08:47:05;;;;;;;6.63;3.30;;;8.50;99.90;;;;;;5022637;28;20533;-83
2021/04/15 08:49:44;;;;;;;6.55;2.75;;;8.40;99.90;;;;;;5021194;28;20052;-82
2021/04/15 08:52:18;;;;;;;7.85;2.50;;;8.20;99.90;;;;;;5019900;28;20129;-82
2021/04/15 08:54:56;;;;;;;6.65;3.67;;;8.00;99.90;;;;;;5022745;28;20093;-82
2021/04/15 08:57:22;;;;;;;7.93;3.85;;;7.90;99.90;;;;;;5023120;28;20463;-82
2021/04/15 09:00:06;;;;;;;11.60;3.08;;;7.80;99.90;;;;;;5022309;28;20053;-83
2021/04/15 09:02:46;;;;;;;7.53;2.88;;;7.80;99.90;;;;;;5021083;28;20050;-82
2021/04/15 09:05:33;;;;;;;9.85;3.13;;;7.80;99.90;;;;;;5003489;28;20052;-81
2021/04/15 09:07:59;;;;;;;9.77;3.65;;;7.90;99.90;;;;;;5003632;28;20133;-82
2021/04/15 09:10:49;;;;;;;8.73;3.22;;;7.90;99.90;;;;;;5008960;28;21886;-82
2021/04/15 09:13:38;;;;;;;13.13;2.25;;;7.80;99.90;;;;;;5005953;28;20080;-82
2021/04/15 09:16:11;;;;;;;7.20;2.15;;;7.70;99.90;;;;;;5023660;28;20084;-83
2021/04/15 09:18:53;;;;;;;4.95;2.10;;;7.60;99.90;;;;;;4997913;28;20050;-82
2021/04/15 09:21:19;;;;;;;9.80;3.08;;;7.60;99.90;;;;;;4994723;28;20053;-82
2021/04/15 09:24:06;;;;;;;7.65;2.90;;;7.60;99.90;;;;;;5020345;28;20476;-82
2021/04/15 09:27:29;;;;;;;6.45;2.78;;;7.70;99.90;;;;;;5005530;28;20065;-82
2021/04/15 09:30:19;;;;;;;4.63;2.50;;;7.90;99.90;;;;;;4962857;28;20074;-83
2021/04/15 09:33:07;;;;;;;9.07;3.55;;;8.00;99.90;;;;;;4967684;28;20055;-82
2021/04/15 09:35:56;;;;;;;7.68;3.97;;;8.00;99.90;;;;;;4972892;28;20497;-82
2021/04/15 09:38:59;;;;;;;7.07;2.60;;;8.10;99.90;;;;;;5015178;28;20485;-82
2021/04/15 09:41:52;;;;;;;7.63;2.90;;;8.20;99.90;;;;;;5004324;28;20125;-82
2021/04/15 09:44:57;;;;;;;7.45;2.63;;;8.40;99.90;;;;;;4998626;28;20066;-82
2021/04/15 09:48:01;;;;;;;6.10;2.55;;;8.50;99.90;;;;;;4978250;28;20129;-82
2021/04/15 09:50:27;;;;;;;10.00;2.60;;;8.50;99.90;;;;;;5002367;28;20139;-82
2021/04/15 09:53:21;;;;;;;6.63;2.53;;;8.40;99.90;;;;;;5008798;28;20045;-82
2021/04/15 09:56:05;;;;;;;4.30;2.78;;;8.30;99.90;;;;;;5020560;28;20129;-82
2021/04/15 09:58:31;;;;;;;;;;;8.20;99.90;;;;;;5019024;28;20049;-82
2021/04/15 10:01:18;;;;;;;7.82;2.83;;;8.40;99.90;;;;;;5017187;28;20300;-82
2021/04/15 10:03:56;;;;;;;6.88;2.47;;;8.80;99.90;;;;;;5002920;28;20049;-82
2021/04/15 10:07:00;;;;;;;6.57;2.75;;;9.00;99.90;;;;;;4996518;28;20050;-82
2021/04/15 10:09:43;;;;;;;9.85;2.60;;;9.10;99.90;;;;;;5002400;28;20148;-82
2021/04/15 10:12:52;;;;;;;3.95;1.98;;;9.50;99.90;;;;;;5003461;28;20382;-83
2021/04/15 10:15:32;;;;;;;8.00;2.30;;;9.70;99.90;;;;;;5001045;28;20054;-82
2021/04/15 10:18:05;;;;;;;7.03;2.60;;;9.60;99.90;;;;;;5001306;28;20113;-82
2021/04/15 10:21:09;;;;;;;7.53;2.17;;;9.60;99.90;;;;;;5004367;28;20394;-82
2021/04/15 10:24:02;;;;;;;5.97;2.10;;;9.80;98.90;;;;;;5018841;28;20144;-82
2021/04/15 10:27:15;;;;;;;3.10;2.20;;;10.00;99.70;;;;;;4995347;28;20145;-83
2021/04/15 10:29:59;;;;;;;4.25;2.30;;;10.30;97.20;;;;;;5001174;28;20084;-82
2021/04/15 10:32:46;;;;;;;4.22;2.00;;;10.20;97.00;;;;;;5019698;28;20129;-81
2021/04/15 10:35:43;;;;;;;7.47;2.55;;;10.10;96.40;;;;;;5007537;28;20136;-82
2021/04/15 10:38:49;;;;;;;6.18;2.17;;;10.20;99.90;;;;;;5025048;28;20121;-82
2021/04/15 10:41:19;;;;;;;11.15;2.20;;;10.50;98.60;;;;;;4974835;28;20037;-82
2021/04/15 10:44:16;;;;;;;6.32;2.15;;;10.60;95.80;;;;;;5024233;28;20110;-82
2021/04/15 10:46:55;;;;;;;5.90;2.08;;;10.50;94.90;;;;;;5005436;28;20070;-81
2021/04/15 10:49:59;;;;;;;6.35;3.00;;;10.40;93.50;;;;;;5005072;28;20559;-81
2021/04/15 10:52:50;;;;;;;5.18;2.65;;;10.40;95.00;;;;;;5007659;28;20133;-81
2021/04/15 10:55:39;;;;;;;9.88;3.15;;;10.90;93.90;;;;;;5023324;28;20391;-82
2021/04/15 10:58:33;;;;;;;5.07;2.53;;;11.40;96.60;;;;;;5002570;28;20048;-82
2021/04/15 11:01:23;;;;;;;9.73;3.47;;;12.00;93.00;;;;;;5006488;28;20144;-82
2021/04/15 11:03:51;;;;;;;3.35;1.90;;;12.40;93.40;;;;;;5014639;28;20064;-82
2021/04/15 11:06:35;;;;;;;3.72;2.53;;;12.80;87.90;;;;;;5009303;28;20228;-82
2021/04/15 11:09:39;;;;;;;5.75;2.78;;;13.30;92.20;;;;;;5007949;28;20540;-82
2021/04/15 11:12:14;;;;;;;2.60;2.40;;;13.80;86.50;;;;;;4984991;28;20089;-82
2021/04/15 11:14:54;;;;;;;5.32;2.85;;;14.10;80.90;;;;;;5005935;28;20046;-82
2021/04/15 11:17:41;;;;;;;4.28;2.70;;;14.00;75.40;;;;;;5025039;28;20062;-82
2021/04/15 11:20:19;;;;;;;5.65;2.00;;;13.60;76.00;;;;;;5020289;28;20053;-82
2021/04/15 11:22:59;;;;;;;5.75;2.88;;;13.10;73.40;;;;;;5000221;28;20489;-82
2021/04/15 11:25:30;;;;;;;22.27;4.65;;;12.70;75.00;;;;;;5011535;28;20132;-82
2021/04/15 11:28:01;;;;;;;7.88;3.08;;;12.30;75.50;;;;;;5009162;28;20054;-82
2021/04/15 11:30:35;;;;;;;5.63;2.67;;;11.90;76.30;;;;;;5001739;28;20069;-82
2021/04/15 11:33:05;;;;;;;4.53;2.85;;;11.60;78.50;;;;;;5002160;28;20054;-82
2021/04/15 11:35:32;;;;;;;4.85;2.63;;;11.40;80.00;;;;;;5019681;28;20054;-83
2021/04/15 11:38:25;;;;;;;6.40;2.80;;;11.30;80.60;;;;;;5010422;28;20070;-84
2021/04/15 11:40:53;;;;;;;4.32;2.38;;;11.20;78.80;;;;;;5004128;28;20058;-84
2021/04/15 11:43:30;;;;;;;4.78;2.38;;;11.20;75.90;;;;;;5018553;28;20050;-85
2021/04/15 11:46:16;;;;;;;5.68;2.78;;;11.10;77.10;;;;;;5002922;28;20119;-84
2021/04/15 11:48:44;;;;;;;8.55;2.80;;;11.20;76.80;;;;;;5003430;28;20058;-85
2021/04/15 11:51:22;;;;;;;5.15;2.47;;;11.30;77.80;;;;;;5024888;28;20046;-86
2021/04/15 11:53:52;;;;;;;3.03;2.38;;;11.40;75.90;;;;;;5025183;28;20041;-85
2021/04/15 11:56:24;;;;;;;3.63;2.40;;;11.30;74.80;;;;;;5007998;28;20132;-85
2021/04/15 11:58:55;;;;;;;7.35;3.03;;;11.30;75.40;;;;;;5019437;28;20460;-84
2021/04/15 12:01:31;;;;;;;2.65;2.10;;;11.20;78.40;;;;;;5003065;28;20132;-84
2021/04/15 12:04:00;;;;;;;10.93;2.72;;;11.20;76.60;;;;;;5006398;28;20551;-85
2021/04/15 12:06:41;;;;;;;5.60;2.65;;;11.10;79.20;;;;;;5021233;28;20037;-86
2021/04/15 12:09:12;;;;;;;6.35;2.78;;;11.00;79.60;;;;;;4993036;28;20061;-86
2021/04/15 12:11:51;;;;;;;6.50;2.70;;;11.00;78.20;;;;;;4994490;28;20088;-86
2021/04/15 12:14:18;;;;;;;4.25;2.15;;;10.90;80.00;;;;;;5001526;28;20049;-86
2021/04/15 12:16:54;;;;;;;3.53;1.95;;;10.90;79.10;;;;;;4994913;28;20062;-85
2021/04/15 12:19:27;;;;;;;3.58;2.00;;;10.80;79.70;;;;;;5018593;28;20061;-85
2021/04/15 12:22:18;;;;;;;5.53;2.08;;;10.90;78.70;;;;;;5020920;28;20111;-85
2021/04/15 12:25:04;;;;;;;5.05;2.00;;;11.20;80.00;;;;;;5020912;28;20053;-85
2021/04/15 12:27:33;;;;;;;8.68;2.60;;;12.10;82.10;;;;;;5010765;28;20461;-85
2021/04/15 12:30:20;;;;;;;6.22;2.72;;;13.50;67.10;;;;;;5018880;28;20053;-86
2021/04/15 12:32:52;;;;;;;5.97;2.55;;;14.10;67.30;;;;;;5003182;28;20058;-85
2021/04/15 12:35:43;;;;;;;4.75;2.35;;;14.50;63.90;;;;;;5018465;28;20064;-85
2021/04/15 12:38:21;;;;;;;4.50;2.20;;;14.70;64.60;;;;;;5016270;28;20061;-85
2021/04/15 12:40:56;;;;;;;7.72;2.00;;;14.60;62.10;;;;;;5004553;28;20149;-85
2021/04/15 12:43:29;;;;;;;4.80;2.08;;;14.50;62.50;;;;;;5019057;28;20465;-85
2021/04/15 12:46:06;;;;;;;3.80;2.08;;;14.40;58.70;;;;;;5012235;28;20049;-85
2021/04/15 12:48:49;;;;;;;3.80;1.92;;;14.10;60.60;;;;;;4999261;28;20072;-85
2021/04/15 12:51:24;;;;;;;6.60;1.95;;;13.70;59.00;;;;;;5001523;28;20057;-84
2021/04/15 12:53:53;;;;;;;6.28;1.67;;;13.50;58.40;;;;;;5012464;28;20046;-84
2021/04/15 12:56:29;;;;;;;4.63;1.40;;;13.20;57.90;;;;;;4997051;28;20128;-84
2021/04/15 12:58:56;;;;;;;5.57;2.05;;;13.00;58.70;;;;;;5010466;28;20056;-85
2021/04/15 13:01:22;;;;;;;2.33;1.42;;;12.90;60.70;;;;;;5018192;28;20050;-85
2021/04/15 13:03:50;;;;;;;3.90;1.48;;;13.00;58.20;;;;;;5024176;28;20062;-85
2021/04/15 13:06:19;;;;;;;1.70;1.05;;;13.20;56.00;;;;;;5008912;28;20556;-85
2021/04/15 13:08:53;;;;;;;4.32;1.60;;;13.20;54.30;;;;;;5022608;28;20049;-85
2021/04/15 13:11:19;;;;;;;;;;;13.10;56.30;;;;;;5009076;28;20051;-85
2021/04/15 13:13:54;;;;;;;4.50;1.67;;;13.20;58.10;;;;;;5023855;28;19932;-85
2021/04/15 13:16:32;;;;;;;5.93;1.63;;;13.20;55.50;;;;;;5008264;28;20066;-86
2021/04/15 13:19:29;;;;;;;3.30;1.73;;;13.00;57.00;;;;;;5007830;28;20041;-85
2021/04/15 13:22:28;;;;;;;5.18;1.67;;;13.00;58.10;;;;;;5005029;28;20069;-85
2021/04/15 13:25:00;;;;;;;3.03;1.55;;;13.20;57.90;;;;;;4995307;28;20462;-85
2021/04/15 13:27:38;;;;;;;5.18;1.67;;;13.30;55.90;;;;;;5024656;28;20049;-84
2021/04/15 13:30:31;;;;;;;9.45;1.95;;;13.20;56.90;;;;;;5007838;28;20456;-85
2021/04/15 13:33:06;;;;;;;5.57;2.17;;;13.20;58.40;;;;;;5009566;28;20038;-85
2021/04/15 13:35:52;;;;;;;5.05;1.83;;;13.30;56.80;;;;;;5021652;28;20476;-85
2021/04/15 13:38:46;;;;;;;3.70;1.40;;;13.50;56.20;;;;;;5022972;28;20615;-85
2021/04/15 13:41:22;;;;;;;2.80;1.75;;;13.60;54.30;;;;;;5026673;28;20046;-85
2021/04/15 13:43:57;;;;;;;5.93;3.88;;;13.70;55.00;;;;;;5001606;28;20555;-85
2021/04/15 13:46:24;;;;;;;4.30;1.60;;;14.20;55.60;;;;;;5003836;28;20042;-85
2021/04/15 13:49:03;;;;;;;13.73;10.27;;;15.20;55.10;;;;;;5023817;28;20077;-84
2021/04/15 13:51:48;;;;;;;1.75;1.35;;;15.90;51.40;;;;;;5006523;28;20076;-84
2021/04/15 13:54:19;;;;;;;4.93;1.42;;;16.10;51.00;;;;;;5012090;28;20050;-84
2021/04/15 13:57:08;;;;;;;5.65;1.67;;;16.10;50.00;;;;;;5018491;28;20196;-84